Time;durP1;ratioP1;P1;durP2;ratioP2;P2;SDS_P1;SDS_P2;PMS_P1;PMS_P2;Temp;Humidity;BMP_temperature;BMP_pressure;BME280_temperature;BME280_humidity;BME280_pressure;Samples;Min_cycle;Max_cycle;Signal;HPM_P1;HPM_P2
2022/01/21 00:00:19;;;;;;;21.30;6.72;;;;;;;;;;5028669;28;20508;-59
2022/01/21 00:02:45;;;;;;;24.75;8.52;;;;;;;;;;5044168;28;20090;-59
2022/01/21 00:05:10;;;;;;;29.53;8.90;;;;;;;;;;5048412;28;20061;-59
2022/01/21 00:07:35;;;;;;;26.30;8.25;;;;;;;;;;5049558;28;20435;-59
2022/01/21 00:10:01;;;;;;;20.97;6.17;;;;;;;;;;5047855;28;20037;-59
2022/01/21 00:12:29;;;;;;;40.42;7.72;;;;;;;;;;5050122;28;20431;-59
2022/01/21 00:14:54;;;;;;;31.50;8.35;;;;;;;;;;5048796;28;20033;-59
2022/01/21 00:17:21;;;;;;;18.20;7.13;;;;;;;;;;5049520;28;20422;-60
2022/01/21 00:19:49;;;;;;;24.40;7.38;;;;;;;;;;5048650;28;20447;-60
2022/01/21 00:30:26;;;;;;;23.85;8.68;;;;;;;;;;5032538;28;20044;-59
2022/01/21 00:32:51;;;;;;;16.40;8.30;;;;;;;;;;5033349;28;20053;-59
2022/01/21 00:35:18;;;;;;;33.75;6.78;;;;;;;;;;5052146;28;20091;-59
2022/01/21 00:37:44;;;;;;;23.20;8.02;;;;;;;;;;5053304;28;20021;-59
2022/01/21 00:40:12;;;;;;;18.70;7.47;;;;;;;;;;5052030;28;20137;-59
2022/01/21 00:45:03;;;;;;;34.22;9.90;;;;;;;;;;5051790;28;20037;-59
2022/01/21 00:47:28;;;;;;;23.38;8.05;;;;;;;;;;5052989;28;20310;-59
2022/01/21 00:49:54;;;;;;;26.75;8.38;;;;;;;;;;5051983;28;20461;-59
2022/01/21 00:52:19;;;;;;;30.58;7.53;;;;;;;;;;5053489;28;20029;-59
2022/01/21 00:54:45;;;;;;;26.10;9.18;;;;;;;;;;5051609;28;20408;-59
2022/01/21 00:57:10;;;;;;;36.70;9.37;;;;;;;;;;5053389;28;20021;-59
2022/01/21 00:59:35;;;;;;;25.40;7.93;;;;;;;;;;5051628;28;20061;-59
2022/01/21 01:02:00;;;;;;;23.67;6.63;;;;;;;;;;5052989;28;20743;-59
2022/01/21 01:04:26;;;;;;;21.77;7.40;;;;;;;;;;5051233;28;20076;-59
2022/01/21 01:06:51;;;;;;;27.40;6.45;;;;;;;;;;5053433;28;20475;-59
2022/01/21 01:09:16;;;;;;;32.77;9.23;;;;;;;;;;5051440;28;20111;-59
2022/01/21 01:11:54;;;;;;;22.58;6.30;;;;;;;;;;5052998;28;20511;-59
2022/01/21 01:22:28;;;;;;;29.77;10.02;;;;;;;;;;5053022;28;20409;-59
2022/01/21 01:27:47;;;;;;;18.73;4.80;;;;;;;;;;4997793;28;20546;-59
2022/01/21 01:30:14;;;;;;;29.13;6.65;;;;;;;;;;5050795;28;20064;-60
2022/01/21 01:32:39;;;;;;;22.23;5.55;;;;;;;;;;5052660;28;20078;-59
2022/01/21 01:35:05;;;;;;;26.95;5.97;;;;;;;;;;5051459;28;20399;-59
2022/01/21 01:37:44;;;;;;;25.23;7.72;;;;;;;;;;5051608;28;20025;-59
2022/01/21 01:50:54;;;;;;;25.17;6.07;;;;;;;;;;5050877;28;20029;-59
2022/01/21 01:53:21;;;;;;;13.07;4.80;;;;;;;;;;5051921;28;20029;-59
2022/01/21 01:55:46;;;;;;;21.60;6.35;;;;;;;;;;5050792;28;20442;-59
2022/01/21 01:58:14;;;;;;;17.10;7.10;;;;;;;;;;5051875;28;20021;-59
2022/01/21 02:00:39;;;;;;;24.77;6.38;;;;;;;;;;5050164;28;20036;-59
2022/01/21 02:03:05;;;;;;;30.08;6.85;;;;;;;;;;5052299;28;20384;-60
2022/01/21 02:05:30;;;;;;;23.40;5.28;;;;;;;;;;5050744;28;20033;-59
2022/01/21 02:07:55;;;;;;;27.77;6.50;;;;;;;;;;5051562;28;20040;-59
2022/01/21 02:10:20;;;;;;;28.42;8.90;;;;;;;;;;5050687;28;20612;-59
2022/01/21 02:12:46;;;;;;;22.15;6.32;;;;;;;;;;5051548;28;20028;-59
2022/01/21 02:15:11;;;;;;;14.30;5.77;;;;;;;;;;5050092;28;20389;-59
2022/01/21 02:22:49;;;;;;;18.80;6.43;;;;;;;;;;5051320;28;20028;-59
2022/01/21 02:25:16;;;;;;;19.88;6.10;;;;;;;;;;5050407;28;20048;-59
2022/01/21 02:27:43;;;;;;;27.98;5.32;;;;;;;;;;5051703;28;20586;-59
2022/01/21 02:30:08;;;;;;;26.63;5.68;;;;;;;;;;5050022;28;20029;-59
2022/01/21 02:32:33;;;;;;;13.60;5.72;;;;;;;;;;5051330;28;20412;-60
2022/01/21 02:34:58;;;;;;;27.48;6.38;;;;;;;;;;5050036;28;20543;-59
2022/01/21 02:37:24;;;;;;;21.37;5.53;;;;;;;;;;5051368;28;20029;-59
2022/01/21 02:39:49;;;;;;;18.00;5.80;;;;;;;;;;5049853;28;20451;-59
2022/01/21 02:42:15;;;;;;;24.38;6.75;;;;;;;;;;5051312;28;20025;-59
2022/01/21 02:44:40;;;;;;;22.33;4.63;;;;;;;;;;5049525;28;20059;-59
2022/01/21 02:47:07;;;;;;;22.13;5.55;;;;;;;;;;5051574;28;20032;-59
2022/01/21 02:49:32;;;;;;;25.27;7.22;;;;;;;;;;5049694;28;20064;-59
2022/01/21 02:52:01;;;;;;;22.63;6.60;;;;;;;;;;5050651;28;20048;-59
2022/01/21 02:54:27;;;;;;;21.30;6.90;;;;;;;;;;5049647;28;20033;-60
2022/01/21 02:56:52;;;;;;;19.02;4.43;;;;;;;;;;5051031;28;20048;-60
2022/01/21 02:59:18;;;;;;;19.60;5.20;;;;;;;;;;5049313;28;20508;-60
2022/01/21 03:01:44;;;;;;;9.05;4.10;;;;;;;;;;5050701;28;20423;-60
2022/01/21 03:04:13;;;;;;;16.80;5.03;;;;;;;;;;5049838;28;20032;-60
2022/01/21 03:06:39;;;;;;;20.08;6.03;;;;;;;;;;5050482;28;20050;-60
2022/01/21 03:09:06;;;;;;;17.92;7.93;;;;;;;;;;5049502;28;20540;-60
2022/01/21 03:11:31;;;;;;;18.70;11.25;;;;;;;;;;5050627;28;20380;-60
2022/01/21 03:13:56;;;;;;;29.73;12.02;;;;;;;;;;5048983;28;20048;-60
2022/01/21 03:16:22;;;;;;;41.45;12.75;;;;;;;;;;5051164;28;20020;-60
2022/01/21 03:18:47;;;;;;;19.63;10.95;;;;;;;;;;5048842;28;20075;-60
2022/01/21 03:21:16;;;;;;;32.75;12.48;;;;;;;;;;5050466;28;20070;-60
2022/01/21 03:23:43;;;;;;;37.10;12.15;;;;;;;;;;5049248;28;20155;-60
2022/01/21 03:26:08;;;;;;;21.27;7.05;;;;;;;;;;5050839;28;20017;-60
2022/01/21 03:28:33;;;;;;;22.27;6.55;;;;;;;;;;5048909;28;20214;-60
2022/01/21 03:30:59;;;;;;;26.17;10.53;;;;;;;;;;5050472;28;20009;-60
2022/01/21 03:33:25;;;;;;;27.35;9.23;;;;;;;;;;5050371;28;20049;-60
2022/01/21 03:35:51;;;;;;;36.42;11.05;;;;;;;;;;5048664;28;20099;-60
2022/01/21 03:38:16;;;;;;;22.67;9.48;;;;;;;;;;5050424;28;20024;-61
2022/01/21 03:40:41;;;;;;;19.35;6.95;;;;;;;;;;5048720;28;20031;-61
2022/01/21 03:43:07;;;;;;;32.83;8.90;;;;;;;;;;5050461;28;20013;-62
2022/01/21 03:45:32;;;;;;;22.73;8.18;;;;;;;;;;5049111;28;20535;-61
2022/01/21 03:47:57;;;;;;;16.17;6.60;;;;;;;;;;5050360;28;20028;-62
2022/01/21 03:50:30;;;;;;;12.93;5.57;;;;;;;;;;5048653;28;20041;-61
2022/01/21 03:52:56;;;;;;;20.00;5.53;;;;;;;;;;5050349;28;20025;-60
2022/01/21 03:55:21;;;;;;;33.45;8.65;;;;;;;;;;5049027;28;20691;-60
2022/01/21 03:57:46;;;;;;;8.10;5.43;;;;;;;;;;5049271;28;20025;-61
2022/01/21 04:00:13;;;;;;;18.17;6.40;;;;;;;;;;5049007;28;20087;-60
2022/01/21 04:02:38;;;;;;;12.27;5.07;;;;;;;;;;5050276;28;20117;-60
2022/01/21 04:05:03;;;;;;;14.43;5.43;;;;;;;;;;5052907;28;20122;-60
2022/01/21 04:07:29;;;;;;;11.98;4.40;;;;;;;;;;5053981;28;20427;-60
2022/01/21 04:09:54;;;;;;;23.40;4.65;;;;;;;;;;5052768;28;20037;-60
2022/01/21 04:12:19;;;;;;;24.05;5.50;;;;;;;;;;5054358;28;20017;-60
2022/01/21 04:14:44;;;;;;;12.20;4.40;;;;;;;;;;5052355;28;20040;-60
2022/01/21 04:17:09;;;;;;;10.75;4.80;;;;;;;;;;5054311;28;20411;-61
2022/01/21 04:19:34;;;;;;;13.73;5.50;;;;;;;;;;5052153;28;20124;-61
2022/01/21 04:22:00;;;;;;;17.77;5.03;;;;;;;;;;5053930;28;20475;-61
2022/01/21 04:24:25;;;;;;;9.65;5.30;;;;;;;;;;5052708;28;20451;-61
2022/01/21 04:26:50;;;;;;;23.50;5.37;;;;;;;;;;5053625;28;20025;-61
2022/01/21 04:29:15;;;;;;;14.02;5.25;;;;;;;;;;5051972;28;20499;-61
2022/01/21 04:31:40;;;;;;;22.43;6.47;;;;;;;;;;5053642;28;20045;-61
2022/01/21 04:34:05;;;;;;;9.27;3.63;;;;;;;;;;5052442;28;20455;-60
2022/01/21 04:36:31;;;;;;;28.10;6.53;;;;;;;;;;5053648;28;20028;-61
2022/01/21 04:38:59;;;;;;;9.15;4.75;;;;;;;;;;5052180;28;20525;-59
2022/01/21 04:47:13;;;;;;;14.18;4.85;;;;;;;;;;5053676;28;20471;-59
2022/01/21 04:47:18;;;;;;;6.22;4.88;;;;;;;;;;5033788;28;20084;-59
2022/01/21 04:49:44;;;;;;;13.45;4.25;;;;;;;;;;5031866;28;20056;-60
2022/01/21 04:52:09;;;;;;;14.90;5.75;;;;;;;;;;5036943;28;20029;-59
2022/01/21 04:54:35;;;;;;;14.27;3.80;;;;;;;;;;5052204;28;20770;-59
2022/01/21 04:57:01;;;;;;;13.23;5.22;;;;;;;;;;5053368;28;20435;-59
2022/01/21 04:59:26;;;;;;;16.40;6.82;;;;;;;;;;5051995;28;20091;-59
2022/01/21 05:01:52;;;;;;;11.35;5.13;;;;;;;;;;5053050;28;20032;-59
2022/01/21 05:04:19;;;;;;;26.13;7.25;;;;;;;;;;5051560;28;20683;-60
2022/01/21 05:06:44;;;;;;;10.68;3.97;;;;;;;;;;5053223;28;20021;-58
2022/01/21 05:09:09;;;;;;;16.30;4.40;;;;;;;;;;5051768;28;20094;-58
2022/01/21 05:11:37;;;;;;;21.17;3.33;;;;;;;;;;5052904;28;20036;-55
2022/01/21 05:14:15;;;;;;;12.48;4.05;;;;;;;;;;5049862;28;20858;-56
2022/01/21 05:16:46;;;;;;;18.63;6.43;;;;;;;;;;5052422;28;20025;-55
2022/01/21 05:19:15;;;;;;;15.85;5.35;;;;;;;;;;5050743;28;20094;-55
2022/01/21 05:21:42;;;;;;;15.70;5.95;;;;;;;;;;5049244;28;20059;-55
2022/01/21 05:24:07;;;;;;;18.65;4.72;;;;;;;;;;5049662;28;20040;-55
2022/01/21 05:26:37;;;;;;;9.37;4.13;;;;;;;;;;5050296;28;20021;-55
2022/01/21 05:29:03;;;;;;;11.23;5.50;;;;;;;;;;5050283;28;20665;-55
2022/01/21 05:31:28;;;;;;;67.70;7.68;;;;;;;;;;5051846;28;20017;-55
2022/01/21 05:33:53;;;;;;;11.93;4.20;;;;;;;;;;5049811;28;20637;-55
2022/01/21 05:36:18;;;;;;;14.27;4.13;;;;;;;;;;5052030;28;20034;-55
2022/01/21 05:38:44;;;;;;;16.05;4.60;;;;;;;;;;5048790;28;20465;-55
2022/01/21 05:41:09;;;;;;;11.85;3.92;;;;;;;;;;5051941;28;20067;-55
2022/01/21 05:43:35;;;;;;;6.78;5.45;;;;;;;;;;5050298;28;20017;-55
2022/01/21 05:48:44;;;;;;;10.63;5.28;;;;;;;;;;5049844;28;20044;-55
2022/01/21 05:51:09;;;;;;;8.67;4.47;;;;;;;;;;5051933;28;20017;-55
2022/01/21 05:53:34;;;;;;;17.37;4.57;;;;;;;;;;5049077;28;20025;-55
2022/01/21 05:56:02;;;;;;;16.95;5.03;;;;;;;;;;5051439;28;20469;-54
2022/01/21 05:58:27;;;;;;;12.43;4.75;;;;;;;;;;5047559;28;20063;-54
2022/01/21 06:00:53;;;;;;;15.43;4.00;;;;;;;;;;5048788;28;20048;-55
2022/01/21 06:03:18;;;;;;;10.03;4.67;;;;;;;;;;5051576;28;20084;-54
2022/01/21 06:05:43;;;;;;;16.93;4.67;;;;;;;;;;5049392;28;20447;-54
2022/01/21 06:08:08;;;;;;;22.10;4.80;;;;;;;;;;5051588;28;20021;-55
2022/01/21 06:10:33;;;;;;;21.60;6.20;;;;;;;;;;5050460;28;20507;-55
2022/01/21 06:12:59;;;;;;;24.50;6.07;;;;;;;;;;5051216;28;20447;-55
2022/01/21 06:15:24;;;;;;;15.65;3.80;;;;;;;;;;5050058;28;20115;-55
2022/01/21 06:17:49;;;;;;;17.03;3.57;;;;;;;;;;5051204;28;20087;-55
2022/01/21 06:20:14;;;;;;;20.27;5.57;;;;;;;;;;5049950;28;20440;-54
2022/01/21 06:22:39;;;;;;;19.13;4.65;;;;;;;;;;5050931;28;20442;-55
2022/01/21 06:25:05;;;;;;;31.92;5.00;;;;;;;;;;5049339;28;20036;-55
2022/01/21 06:27:32;;;;;;;11.00;4.88;;;;;;;;;;5051027;28;20017;-55
2022/01/21 06:29:57;;;;;;;19.25;4.20;;;;;;;;;;5049822;28;20033;-55
2022/01/21 06:32:22;;;;;;;20.83;6.35;;;;;;;;;;5050960;28;20099;-55
2022/01/21 06:34:48;;;;;;;13.52;4.75;;;;;;;;;;5049519;28;20029;-55
2022/01/21 06:37:13;;;;;;;12.82;3.88;;;;;;;;;;5051495;28;20104;-55
2022/01/21 06:39:38;;;;;;;11.83;4.77;;;;;;;;;;5049448;28;20044;-53
2022/01/21 06:42:03;;;;;;;10.30;5.40;;;;;;;;;;5050596;28;20428;-55
2022/01/21 06:44:28;;;;;;;7.43;3.78;;;;;;;;;;5049495;28;20107;-55
2022/01/21 06:46:53;;;;;;;26.43;6.23;;;;;;;;;;5050930;28;20367;-54
2022/01/21 06:49:19;;;;;;;14.37;4.07;;;;;;;;;;5049253;28;20482;-55
2022/01/21 06:51:44;;;;;;;18.90;5.72;;;;;;;;;;5050734;28;20431;-55
2022/01/21 06:54:09;;;;;;;21.67;6.55;;;;;;;;;;5049351;28;20040;-55
2022/01/21 06:56:34;;;;;;;24.00;5.13;;;;;;;;;;5050512;28;20021;-55
2022/01/21 06:59:00;;;;;;;11.55;5.32;;;;;;;;;;5049406;28;20474;-55
2022/01/21 07:01:25;;;;;;;19.97;5.50;;;;;;;;;;5051146;28;20021;-55
2022/01/21 07:03:50;;;;;;;29.02;9.18;;;;;;;;;;5049238;28;20451;-55
2022/01/21 07:06:15;;;;;;;18.83;4.03;;;;;;;;;;5049514;28;20384;-55
2022/01/21 07:08:40;;;;;;;19.08;4.63;;;;;;;;;;5048500;28;20482;-55
2022/01/21 07:11:05;;;;;;;28.00;6.77;;;;;;;;;;5050728;28;20275;-55
2022/01/21 07:13:30;;;;;;;20.23;6.07;;;;;;;;;;5048340;28;20499;-55
2022/01/21 07:15:57;;;;;;;10.50;4.67;;;;;;;;;;5049852;28;20461;-54
2022/01/21 07:18:22;;;;;;;17.85;6.28;;;;;;;;;;5049547;28;20487;-54
2022/01/21 07:20:48;;;;;;;22.42;7.03;;;;;;;;;;5047882;28;20118;-54
2022/01/21 07:23:13;;;;;;;13.07;6.18;;;;;;;;;;5050865;28;20021;-55
2022/01/21 07:25:38;;;;;;;35.97;9.30;;;;;;;;;;5048708;28;20045;-54
2022/01/21 07:28:04;;;;;;;16.70;5.60;;;;;;;;;;5050787;28;20418;-54
2022/01/21 07:30:30;;;;;;;16.23;5.38;;;;;;;;;;5049149;28;20459;-55
2022/01/21 07:32:55;;;;;;;14.25;4.40;;;;;;;;;;5050030;28;20064;-55
2022/01/21 07:35:20;;;;;;;17.23;4.82;;;;;;;;;;5049267;28;20480;-55
2022/01/21 07:37:45;;;;;;;12.10;5.18;;;;;;;;;;5049330;28;20048;-55
2022/01/21 07:40:11;;;;;;;19.75;4.47;;;;;;;;;;5047005;28;20034;-55
2022/01/21 07:42:36;;;;;;;13.48;4.60;;;;;;;;;;5050350;28;20017;-54
2022/01/21 07:45:01;;;;;;;11.60;5.60;;;;;;;;;;5049070;28;20052;-54
2022/01/21 07:47:27;;;;;;;14.50;3.67;;;;;;;;;;5050082;28;20515;-54
2022/01/21 07:49:52;;;;;;;17.73;5.13;;;;;;;;;;5048902;28;20098;-54
2022/01/21 07:52:18;;;;;;;17.70;4.57;;;;;;;;;;5050401;28;20419;-55
2022/01/21 07:54:43;;;;;;;7.90;5.20;;;;;;;;;;5048335;28;20033;-55
2022/01/21 07:57:08;;;;;;;9.27;5.03;;;;;;;;;;5050435;28;20028;-55
2022/01/21 07:59:34;;;;;;;15.93;3.88;;;;;;;;;;5042031;28;20828;-55
2022/01/21 08:01:59;;;;;;;21.10;4.28;;;;;;;;;;5046795;28;20040;-55
2022/01/21 08:04:24;;;;;;;12.30;5.23;;;;;;;;;;5065381;28;20044;-55
2022/01/21 08:06:50;;;;;;;16.00;4.80;;;;;;;;;;5054687;28;20455;-55
2022/01/21 08:09:15;;;;;;;11.15;4.32;;;;;;;;;;5048719;28;20041;-55
2022/01/21 08:11:41;;;;;;;10.80;4.05;;;;;;;;;;5049939;28;20017;-55
2022/01/21 08:14:06;;;;;;;34.92;5.50;;;;;;;;;;5048612;28;20037;-55
2022/01/21 08:16:33;;;;;;;20.45;5.57;;;;;;;;;;5050062;28;20032;-55
2022/01/21 08:18:59;;;;;;;15.65;5.53;;;;;;;;;;5048048;28;20045;-55
2022/01/21 08:21:24;;;;;;;13.75;7.57;;;;;;;;;;5050158;28;20027;-54
2022/01/21 08:23:51;;;;;;;13.70;5.32;;;;;;;;;;5048622;28;20460;-55
2022/01/21 08:26:20;;;;;;;22.73;6.15;;;;;;;;;;5049879;28;20071;-55
2022/01/21 08:28:46;;;;;;;18.65;4.25;;;;;;;;;;5047960;28;20480;-55
2022/01/21 08:31:11;;;;;;;12.73;4.22;;;;;;;;;;5050213;28;20025;-55
2022/01/21 08:33:36;;;;;;;19.50;4.75;;;;;;;;;;5047892;28;20121;-55
2022/01/21 08:36:01;;;;;;;24.73;7.00;;;;;;;;;;5049944;28;20028;-55
2022/01/21 08:38:26;;;;;;;24.23;6.63;;;;;;;;;;5049676;28;20028;-55
2022/01/21 08:40:52;;;;;;;19.87;6.10;;;;;;;;;;5047879;28;20121;-55
2022/01/21 08:43:17;;;;;;;19.42;5.30;;;;;;;;;;5049891;28;20416;-55
2022/01/21 08:45:42;;;;;;;10.20;4.83;;;;;;;;;;5047907;28;20029;-55
2022/01/21 08:48:07;;;;;;;9.55;5.47;;;;;;;;;;5050380;28;20024;-55
2022/01/21 08:50:32;;;;;;;26.65;6.97;;;;;;;;;;5052047;28;20029;-56
2022/01/21 08:53:09;;;;;;;12.65;3.85;;;;;;;;;;5053601;28;20101;-55
2022/01/21 08:55:34;;;;;;;18.13;4.22;;;;;;;;;;5051434;28;20040;-56
2022/01/21 08:57:59;;;;;;;35.87;8.43;;;;;;;;;;5053041;28;20021;-55
2022/01/21 09:00:24;;;;;;;11.47;4.73;;;;;;;;;;5051808;28;20858;-55
2022/01/21 09:02:51;;;;;;;16.15;6.03;;;;;;;;;;5049689;28;20434;-55
2022/01/21 09:05:16;;;;;;;10.32;4.53;;;;;;;;;;5050403;28;20039;-55
2022/01/21 09:07:41;;;;;;;14.23;4.80;;;;;;;;;;5052748;28;20351;-55
2022/01/21 09:10:07;;;;;;;10.27;5.37;;;;;;;;;;5051536;28;20154;-55
2022/01/21 09:12:32;;;;;;;17.75;6.97;;;;;;;;;;5053083;28;21081;-55
2022/01/21 09:14:58;;;;;;;16.40;5.70;;;;;;;;;;5051320;28;20048;-55
2022/01/21 09:17:23;;;;;;;11.27;4.63;;;;;;;;;;5052789;28;20020;-55
2022/01/21 09:19:48;;;;;;;14.27;4.60;;;;;;;;;;5050950;28;20458;-56
2022/01/21 09:22:13;;;;;;;11.85;3.28;;;;;;;;;;5052990;28;20036;-55
2022/01/21 09:24:39;;;;;;;14.30;3.95;;;;;;;;;;5051024;28;20037;-56
2022/01/21 09:27:04;;;;;;;11.85;3.97;;;;;;;;;;5052739;28;20553;-56
2022/01/21 09:29:29;;;;;;;16.02;4.93;;;;;;;;;;5051614;28;20094;-55
2022/01/21 09:31:55;;;;;;;18.50;4.75;;;;;;;;;;5052194;28;20041;-55
2022/01/21 09:34:20;;;;;;;11.25;4.97;;;;;;;;;;5051420;28;20416;-56
2022/01/21 09:36:45;;;;;;;13.77;4.00;;;;;;;;;;5052426;28;20017;-56
2022/01/21 09:39:11;;;;;;;12.83;5.77;;;;;;;;;;5050797;28;20037;-56
2022/01/21 09:41:36;;;;;;;7.10;4.22;;;;;;;;;;5052563;28;20417;-56
2022/01/21 09:44:03;;;;;;;5.93;3.80;;;;;;;;;;5051191;28;20037;-56
2022/01/21 09:46:35;;;;;;;17.13;5.25;;;;;;;;;;5052466;28;20031;-55
2022/01/21 09:49:07;;;;;;;12.68;5.65;;;;;;;;;;5051323;28;20083;-56
2022/01/21 09:51:34;;;;;;;15.20;5.30;;;;;;;;;;5052477;28;20048;-56
2022/01/21 09:54:01;;;;;;;11.77;4.18;;;;;;;;;;5050438;28;20094;-56
2022/01/21 09:56:26;;;;;;;9.90;5.88;;;;;;;;;;5052609;28;20408;-56
2022/01/21 09:58:51;;;;;;;23.35;6.13;;;;;;;;;;5050468;28;20033;-55
2022/01/21 10:01:18;;;;;;;15.10;4.18;;;;;;;;;;5051084;28;20421;-56
2022/01/21 10:03:43;;;;;;;23.50;6.15;;;;;;;;;;5050904;28;20384;-56
2022/01/21 10:06:09;;;;;;;15.10;4.97;;;;;;;;;;5052621;28;20013;-56
2022/01/21 10:08:38;;;;;;;10.50;5.47;;;;;;;;;;5050601;28;20431;-56
2022/01/21 10:11:03;;;;;;;10.38;4.10;;;;;;;;;;5048520;28;20415;-55
2022/01/21 10:13:30;;;;;;;11.18;6.35;;;;;;;;;;5051709;28;20021;-55
2022/01/21 10:15:55;;;;;;;12.23;4.97;;;;;;;;;;5049597;28;20045;-56
2022/01/21 10:18:21;;;;;;;14.87;4.67;;;;;;;;;;5051446;28;20495;-55
2022/01/21 10:21:06;;;;;;;12.95;4.20;;;;;;;;;;5049852;28;20498;-56
2022/01/21 10:23:34;;;;;;;8.40;3.95;;;;;;;;;;5050498;28;20066;-56
2022/01/21 10:25:59;;;;;;;11.95;4.03;;;;;;;;;;5051599;28;20092;-56
2022/01/21 10:28:24;;;;;;;11.17;3.43;;;;;;;;;;5051886;28;20029;-56
2022/01/21 10:31:03;;;;;;;14.13;5.80;;;;;;;;;;5049828;28;20466;-56
2022/01/21 10:33:28;;;;;;;11.48;4.57;;;;;;;;;;5051656;28;20136;-55
2022/01/21 10:36:08;;;;;;;9.10;5.65;;;;;;;;;;5050199;28;20500;-55
2022/01/21 10:38:38;;;;;;;11.20;4.35;;;;;;;;;;5049500;28;20444;-55
2022/01/21 10:41:04;;;;;;;12.05;3.80;;;;;;;;;;5051616;28;20583;-56
2022/01/21 10:43:29;;;;;;;22.13;5.53;;;;;;;;;;5050462;28;20100;-55
2022/01/21 10:45:57;;;;;;;16.37;5.30;;;;;;;;;;5050882;28;20044;-56
2022/01/21 10:48:22;;;;;;;17.80;8.02;;;;;;;;;;5051807;28;20371;-55
2022/01/21 10:51:07;;;;;;;17.77;5.43;;;;;;;;;;5049721;28;20182;-56
2022/01/21 10:53:32;;;;;;;12.20;3.90;;;;;;;;;;5049505;28;20029;-55
2022/01/21 10:56:08;;;;;;;22.10;6.17;;;;;;;;;;5051090;28;20527;-55
2022/01/21 10:58:38;;;;;;;12.25;6.97;;;;;;;;;;5049743;28;20824;-55
2022/01/21 11:01:08;;;;;;;23.50;9.98;;;;;;;;;;5039398;28;20017;-55
2022/01/21 11:03:36;;;;;;;13.48;4.60;;;;;;;;;;5029218;28;20026;-56
2022/01/21 11:06:07;;;;;;;10.35;4.30;;;;;;;;;;5031424;28;20017;-55
2022/01/21 11:08:34;;;;;;;17.90;4.30;;;;;;;;;;5042036;28;20027;-56
2022/01/21 11:10:59;;;;;;;29.25;5.88;;;;;;;;;;5052152;28;20443;-55
2022/01/21 11:13:25;;;;;;;19.55;5.20;;;;;;;;;;5055722;28;20086;-55
2022/01/21 11:15:54;;;;;;;17.63;3.85;;;;;;;;;;5049633;28;20033;-55
2022/01/21 11:18:20;;;;;;;;;;;;;;;;;;5071089;28;20051;-55
2022/01/21 11:20:48;;;;;;;29.95;6.25;;;;;;;;;;5066234;28;20055;-55
2022/01/21 11:23:14;;;;;;;11.23;4.50;;;;;;;;;;5044023;28;20396;-55
2022/01/21 11:25:57;;;;;;;18.63;5.43;;;;;;;;;;5050964;28;20051;-55
2022/01/21 11:28:23;;;;;;;12.70;4.28;;;;;;;;;;5050646;28;20552;-55
2022/01/21 11:30:49;;;;;;;7.38;3.92;;;;;;;;;;5049502;28;20326;-56
2022/01/21 11:33:14;;;;;;;27.90;7.90;;;;;;;;;;5054330;28;20523;-55
2022/01/21 11:35:40;;;;;;;13.77;5.47;;;;;;;;;;5048919;28;20048;-56
2022/01/21 11:38:06;;;;;;;17.17;5.13;;;;;;;;;;5052191;28;20052;-55
2022/01/21 11:40:32;;;;;;;12.25;5.47;;;;;;;;;;5068996;28;20036;-57
2022/01/21 11:42:58;;;;;;;13.60;3.55;;;;;;;;;;5069392;28;20410;-56
2022/01/21 11:50:37;;;;;;;26.42;5.38;;;;;;;;;;5048779;28;20453;-55
2022/01/21 11:53:02;;;;;;;12.82;5.00;;;;;;;;;;5066912;28;20044;-55
2022/01/21 11:55:37;;;;;;;19.08;6.07;;;;;;;;;;5048873;28;20033;-55
2022/01/21 11:58:13;;;;;;;23.65;8.70;;;;;;;;;;5050843;28;20025;-55
2022/01/21 12:00:40;;;;;;;13.27;4.47;;;;;;;;;;5048209;28;20025;-56
2022/01/21 12:03:05;;;;;;;19.90;5.63;;;;;;;;;;5058550;28;20031;-56
2022/01/21 12:05:30;;;;;;;20.02;6.15;;;;;;;;;;5068932;28;20116;-55
2022/01/21 12:07:55;;;;;;;34.10;7.70;;;;;;;;;;5055947;28;20123;-55
2022/01/21 12:10:21;;;;;;;38.97;8.10;;;;;;;;;;5048471;28;20463;-55
2022/01/21 12:12:51;;;;;;;12.80;4.10;;;;;;;;;;5049835;28;20029;-55
2022/01/21 12:15:21;;;;;;;13.40;6.00;;;;;;;;;;5048497;28;20791;-55
2022/01/21 12:17:52;;;;;;;18.60;5.60;;;;;;;;;;5049532;28;20051;-55
2022/01/21 12:20:17;;;;;;;43.25;8.57;;;;;;;;;;5056903;28;20040;-55
2022/01/21 12:22:42;;;;;;;19.03;5.07;;;;;;;;;;5063114;28;20021;-55
2022/01/21 12:25:09;;;;;;;14.37;5.90;;;;;;;;;;5070741;28;20165;-56
2022/01/21 12:27:35;;;;;;;19.75;4.72;;;;;;;;;;5071469;28;20446;-55
2022/01/21 12:30:19;;;;;;;11.25;3.90;;;;;;;;;;5063497;28;20060;-55
2022/01/21 12:32:51;;;;;;;22.98;5.07;;;;;;;;;;5073397;28;20094;-56
2022/01/21 12:35:19;;;;;;;18.83;5.40;;;;;;;;;;5071769;28;20048;-55
2022/01/21 12:39:05;;;;;;;15.02;6.13;;;;;;;;;;5061714;28;20028;-55
2022/01/21 12:40:49;;;;;;;23.77;7.18;;;;;;;;;;5063243;28;20037;-55
2022/01/21 12:43:33;;;;;;;9.80;3.80;;;;;;;;;;5065506;28;20070;-55
2022/01/21 12:46:09;;;;;;;19.83;5.72;;;;;;;;;;5071621;28;20072;-55
2022/01/21 12:48:35;;;;;;;18.42;4.80;;;;;;;;;;5054502;28;21675;-55
2022/01/21 12:51:13;;;;;;;9.90;3.58;;;;;;;;;;5054785;28;20040;-56
2022/01/21 12:55:54;;;;;;;30.40;5.18;;;;;;;;;;5065126;28;20436;-56
2022/01/21 12:56:23;;;;;;;24.58;6.47;;;;;;;;;;5035771;28;20349;-55
2022/01/21 12:58:49;;;;;;;32.30;9.77;;;;;;;;;;5071220;28;20048;-55
2022/01/21 13:01:15;;;;;;;21.15;7.53;;;;;;;;;;5066387;28;20036;-56
2022/01/21 13:03:46;;;;;;;19.50;6.45;;;;;;;;;;5056869;28;20028;-55
2022/01/21 13:06:30;;;;;;;29.08;8.35;;;;;;;;;;5052946;28;20472;-56
2022/01/21 13:08:59;;;;;;;24.30;8.55;;;;;;;;;;5048738;28;20076;-55
2022/01/21 13:11:25;;;;;;;21.65;6.15;;;;;;;;;;5065129;28;20387;-55
2022/01/21 13:14:22;;;;;;;39.28;7.97;;;;;;;;;;5053654;28;20033;-55
2022/01/21 13:16:52;;;;;;;45.25;9.07;;;;;;;;;;5047089;28;20035;-55
2022/01/21 13:19:17;;;;;;;23.17;6.93;;;;;;;;;;5051527;28;20040;-55
2022/01/21 13:21:45;;;;;;;30.92;5.28;;;;;;;;;;5053993;28;20379;-56
2022/01/21 13:24:26;;;;;;;12.65;5.97;;;;;;;;;;5039813;28;20056;-55
2022/01/21 13:26:53;;;;;;;16.77;5.47;;;;;;;;;;5056709;28;20024;-55
2022/01/21 13:29:18;;;;;;;21.60;5.88;;;;;;;;;;5045551;28;20542;-55
2022/01/21 13:31:47;;;;;;;27.05;9.50;;;;;;;;;;5051012;28;20029;-55
2022/01/21 13:34:16;;;;;;;15.90;4.47;;;;;;;;;;5058667;28;20065;-55
2022/01/21 13:36:41;;;;;;;16.13;6.05;;;;;;;;;;5054382;28;20055;-56
2022/01/21 13:39:09;;;;;;;15.07;5.03;;;;;;;;;;5045550;28;20069;-55
2022/01/21 13:41:45;;;;;;;19.33;5.45;;;;;;;;;;5060364;28;20021;-55
2022/01/21 13:44:10;;;;;;;13.75;3.63;;;;;;;;;;5054118;28;20038;-55
2022/01/21 13:46:35;;;;;;;28.73;7.63;;;;;;;;;;5052277;28;20107;-55
2022/01/21 13:49:03;;;;;;;33.85;9.00;;;;;;;;;;5065859;28;20041;-55
2022/01/21 13:51:28;;;;;;;9.77;3.13;;;;;;;;;;5056186;28;20017;-55
2022/01/21 13:54:02;;;;;;;14.25;5.15;;;;;;;;;;5050336;28;20588;-55
2022/01/21 13:56:27;;;;;;;9.05;3.63;;;;;;;;;;5057333;28;20028;-55
2022/01/21 13:58:55;;;;;;;16.83;5.32;;;;;;;;;;5050116;28;20037;-55
2022/01/21 14:01:23;;;;;;;21.08;4.63;;;;;;;;;;5052264;28;20033;-55
2022/01/21 14:03:48;;;;;;;23.17;5.70;;;;;;;;;;5050350;28;20112;-54
2022/01/21 14:06:16;;;;;;;14.27;4.20;;;;;;;;;;5051763;28;20228;-55
2022/01/21 14:08:48;;;;;;;13.68;4.63;;;;;;;;;;5046952;28;20023;-55
2022/01/21 14:11:25;;;;;;;22.77;6.53;;;;;;;;;;5056369;28;20021;-55
2022/01/21 14:13:59;;;;;;;16.58;4.10;;;;;;;;;;5050431;28;20034;-55
2022/01/21 14:16:31;;;;;;;11.98;4.20;;;;;;;;;;5055796;28;20175;-55
2022/01/21 14:18:57;;;;;;;14.25;4.18;;;;;;;;;;5045666;28;20124;-55
2022/01/21 14:21:25;;;;;;;15.05;4.05;;;;;;;;;;5040724;28;20104;-55
2022/01/21 14:23:50;;;;;;;17.58;6.80;;;;;;;;;;5049781;28;20093;-55
2022/01/21 14:26:17;;;;;;;17.58;5.10;;;;;;;;;;5051747;28;20103;-54
2022/01/21 14:28:44;;;;;;;21.77;6.28;;;;;;;;;;5049843;28;20024;-56
2022/01/21 14:31:25;;;;;;;40.25;11.48;;;;;;;;;;5054782;28;20060;-55
2022/01/21 14:33:51;;;;;;;18.60;7.30;;;;;;;;;;5051096;28;20036;-55
2022/01/21 14:36:16;;;;;;;32.03;6.57;;;;;;;;;;5065245;28;20648;-55
2022/01/21 14:38:51;;;;;;;19.13;5.87;;;;;;;;;;5055401;28;20499;-55
2022/01/21 14:41:21;;;;;;;18.02;6.13;;;;;;;;;;5045820;28;20044;-55
2022/01/21 14:43:55;;;;;;;24.45;6.28;;;;;;;;;;5050778;28;20109;-55
2022/01/21 14:46:28;;;;;;;13.98;5.03;;;;;;;;;;5046150;28;20040;-55
2022/01/21 14:49:12;;;;;;;14.50;5.55;;;;;;;;;;5048884;28;20017;-54
2022/01/21 14:51:45;;;;;;;29.25;5.82;;;;;;;;;;5050080;28;20040;-55
2022/01/21 14:54:13;;;;;;;21.65;5.35;;;;;;;;;;5051628;28;20021;-55
2022/01/21 14:56:39;;;;;;;13.88;3.90;;;;;;;;;;5049026;28;20064;-55
2022/01/21 14:59:08;;;;;;;10.27;4.93;;;;;;;;;;5049747;28;20547;-55
2022/01/21 15:01:33;;;;;;;24.75;5.80;;;;;;;;;;5058807;28;20452;-55
2022/01/21 15:04:10;;;;;;;21.87;3.90;;;;;;;;;;5049641;28;20192;-55
2022/01/21 15:06:35;;;;;;;10.40;4.13;;;;;;;;;;5045036;28;20040;-55
2022/01/21 15:09:01;;;;;;;18.67;6.13;;;;;;;;;;5050820;28;20437;-55
2022/01/21 15:14:33;;;;;;;20.17;6.78;;;;;;;;;;5050379;28;20104;-55
2022/01/21 15:16:59;;;;;;;27.55;5.97;;;;;;;;;;5048079;28;20052;-55
2022/01/21 15:19:32;;;;;;;21.35;8.73;;;;;;;;;;5048813;28;20024;-55
2022/01/21 15:21:59;;;;;;;10.77;5.35;;;;;;;;;;5051826;28;20055;-55